Time;durP1;ratioP1;P1;durP2;ratioP2;P2;SDS_P1;SDS_P2;PMS_P1;PMS_P2;Temp;Humidity;BMP_temperature;BMP_pressure;BME280_temperature;BME280_humidity;BME280_pressure;Samples;Min_cycle;Max_cycle;Signal;HPM_P1;HPM_P2
2021/07/29 00:01:13;;;;;;;;;;;;;;;;;;5030250;28;1905;-89
2021/07/29 00:03:38;;;;;;;;;;;;;;;;;;4998750;28;1501;-89
2021/07/29 00:06:03;;;;;;;;;;;;;;;;;;5001544;28;1320;-89
2021/07/29 00:08:29;;;;;;;;;;;;;;;;;;5029383;28;1067;-88
2021/07/29 00:10:54;;;;;;;;;;;;;;;;;;5031222;28;1620;-89
2021/07/29 00:13:20;;;;;;;;;;;;;;;;;;5030621;28;1259;-89
2021/07/29 00:15:45;;;;;;;;;;;;;;;;;;5001301;28;1379;-89
2021/07/29 00:20:39;;;;;;;;;;;;;;;;;;5028021;28;1967;-89
2021/07/29 00:23:05;;;;;;;;;;;;;;;;;;5027225;28;1470;-88
2021/07/29 00:25:30;;;;;;;;;;;;;;;;;;5014817;28;1508;-88
2021/07/29 00:27:56;;;;;;;;;;;;;;;;;;5030043;28;1723;-89
2021/07/29 00:30:21;;;;;;;;;;;;;;;;;;5002509;28;1289;-88
2021/07/29 00:32:46;;;;;;;;;;;;;;;;;;5016212;28;1157;-88
2021/07/29 00:35:15;;;;;;;;;;;;;;;;;;5029959;28;1614;-89
2021/07/29 00:37:44;;;;;;;;;;;;;;;;;;5027960;28;1138;-88
2021/07/29 00:40:10;;;;;;;;;;;;;;;;;;5028363;28;1956;-89
2021/07/29 00:42:35;;;;;;;;;;;;;;;;;;5015505;28;1462;-88
2021/07/29 00:45:00;;;;;;;;;;;;;;;;;;5017573;28;1374;-88
2021/07/29 00:47:25;;;;;;;;;;;;;;;;;;5031746;28;1151;-89
2021/07/29 00:49:50;;;;;;;;;;;;;;;;;;5013592;28;1570;-89
2021/07/29 00:52:16;;;;;;;;;;;;;;;;;;5031130;28;1099;-88
2021/07/29 00:54:41;;;;;;;;;;;;;;;;;;5002340;28;1260;-88
2021/07/29 00:57:07;;;;;;;;;;;;;;;;;;5010136;28;1606;-89
2021/07/29 00:59:33;;;;;;;;;;;;;;;;;;5010418;28;1662;-90
2021/07/29 01:01:58;;;;;;;;;;;;;;;;;;5014048;28;1898;-89
2021/07/29 01:04:23;;;;;;;;;;;;;;;;;;5024936;28;1295;-89
2021/07/29 01:06:48;;;;;;;;;;;;;;;;;;5028243;28;1556;-89
2021/07/29 01:09:13;;;;;;;;;;;;;;;;;;5029283;28;1176;-89
2021/07/29 01:11:39;;;;;;;;;;;;;;;;;;5015865;28;1576;-88
2021/07/29 01:14:04;;;;;;;;;;;;;;;;;;4994534;28;1616;-89
2021/07/29 01:16:29;;;;;;;;;;;;;;;;;;5014285;28;1178;-89
2021/07/29 01:18:55;;;;;;;;;;;;;;;;;;5016363;28;1244;-90
2021/07/29 01:21:20;;;;;;;;;;;;;;;;;;4999827;28;1902;-89
2021/07/29 01:23:45;;;;;;;;;;;;;;;;;;5026178;28;1616;-88
2021/07/29 01:26:11;;;;;;;;;;;;;;;;;;5003009;28;1553;-89
2021/07/29 01:28:36;;;;;;;;;;;;;;;;;;5016587;28;1506;-88
2021/07/29 01:31:01;;;;;;;;;;;;;;;;;;5016820;28;1209;-88
2021/07/29 01:33:26;;;;;;;;;;;;;;;;;;5030372;28;1303;-88
2021/07/29 01:35:51;;;;;;;;;;;;;;;;;;5029004;28;1601;-89
2021/07/29 01:38:16;;;;;;;;;;;;;;;;;;5000591;28;1511;-87
2021/07/29 01:40:42;;;;;;;;;;;;;;;;;;5028477;28;1987;-89
2021/07/29 01:43:07;;;;;;;;;;;;;;;;;;5013877;28;1461;-89
2021/07/29 01:45:32;;;;;;;;;;;;;;;;;;5027822;28;1402;-89
2021/07/29 01:47:57;;;;;;;;;;;;;;;;;;5029864;28;1215;-89
2021/07/29 01:50:22;;;;;;;;;;;;;;;;;;5027606;28;1546;-89
2021/07/29 01:52:48;;;;;;;;;;;;;;;;;;5025536;28;1054;-89
2021/07/29 01:55:13;;;;;;;;;;;;;;;;;;5023943;28;1611;-88
2021/07/29 01:57:38;;;;;;;;;;;;;;;;;;5014283;28;1093;-88
2021/07/29 02:00:04;;;;;;;;;;;;;;;;;;5014618;28;1944;-89
2021/07/29 02:02:29;;;;;;;;;;;;;;;;;;5031984;28;1140;-89
2021/07/29 02:04:54;;;;;;;;;;;;;;;;;;5032166;28;1354;-89
2021/07/29 02:07:20;;;;;;;;;;;;;;;;;;5019994;28;1184;-89
2021/07/29 02:09:45;;;;;;;;;;;;;;;;;;5018964;28;1699;-89
2021/07/29 02:12:10;;;;;;;;;;;;;;;;;;5031353;28;1605;-89
2021/07/29 02:14:35;;;;;;;;;;;;;;;;;;5016632;28;1575;-89
2021/07/29 02:17:00;;;;;;;;;;;;;;;;;;5033035;28;1561;-89
2021/07/29 02:19:25;;;;;;;;;;;;;;;;;;5016955;28;1415;-88
2021/07/29 02:21:51;;;;;;;;;;;;;;;;;;5028679;28;1887;-89
2021/07/29 02:24:16;;;;;;;;;;;;;;;;;;5028786;28;1377;-89
2021/07/29 02:26:42;;;;;;;;;;;;;;;;;;5015857;28;1681;-89
2021/07/29 02:29:07;;;;;;;;;;;;;;;;;;5015195;28;1710;-89
2021/07/29 02:31:32;;;;;;;;;;;;;;;;;;5029320;28;1298;-88
2021/07/29 02:33:57;;;;;;;;;;;;;;;;;;5029604;28;1389;-89
2021/07/29 02:36:22;;;;;;;;;;;;;;;;;;5030924;28;1129;-88
2021/07/29 02:38:48;;;;;;;;;;;;;;;;;;5019127;28;1595;-89
2021/07/29 02:41:13;;;;;;;;;;;;;;;;;;5021709;28;1910;-88
2021/07/29 02:43:38;;;;;;;;;;;;;;;;;;5033281;28;1404;-88
2021/07/29 02:46:03;;;;;;;;;;;;;;;;;;5034959;28;1295;-89
2021/07/29 02:48:28;;;;;;;;;;;;;;;;;;5020524;28;1256;-89
2021/07/29 02:50:54;;;;;;;;;;;;;;;;;;5034056;28;1641;-88
2021/07/29 02:53:20;;;;;;;;;;;;;;;;;;5003636;28;1256;-88
2021/07/29 02:55:45;;;;;;;;;;;;;;;;;;5019710;28;1567;-90
2021/07/29 02:58:10;;;;;;;;;;;;;;;;;;5020853;28;1192;-89
2021/07/29 03:00:35;;;;;;;;;;;;;;;;;;5028843;28;1902;-89
2021/07/29 03:03:00;;;;;;;;;;;;;;;;;;5025172;28;1537;-89
2021/07/29 03:05:25;;;;;;;;;;;;;;;;;;5017979;28;1782;-89
2021/07/29 03:07:51;;;;;;;;;;;;;;;;;;5035149;28;1315;-89
2021/07/29 03:10:16;;;;;;;;;;;;;;;;;;5027605;28;1658;-89
2021/07/29 03:12:41;;;;;;;;;;;;;;;;;;5020614;28;1235;-89
2021/07/29 03:15:06;;;;;;;;;;;;;;;;;;5001693;28;1391;-89
2021/07/29 03:17:32;;;;;;;;;;;;;;;;;;5004518;28;1217;-90
2021/07/29 03:19:57;;;;;;;;;;;;;;;;;;5033794;28;1883;-89
2021/07/29 03:22:22;;;;;;;;;;;;;;;;;;5018471;28;1225;-89
2021/07/29 03:24:47;;;;;;;;;;;;;;;;;;5019749;28;1402;-89
2021/07/29 03:27:12;;;;;;;;;;;;;;;;;;5031666;28;1561;-88
2021/07/29 03:29:38;;;;;;;;;;;;;;;;;;5001629;28;1438;-89
2021/07/29 03:32:03;;;;;;;;;;;;;;;;;;5019946;28;1145;-89
2021/07/29 03:34:28;;;;;;;;;;;;;;;;;;5027517;28;1569;-89
2021/07/29 03:36:53;;;;;;;;;;;;;;;;;;5031172;28;1121;-89
2021/07/29 03:39:18;;;;;;;;;;;;;;;;;;5031480;28;1287;-89
2021/07/29 03:41:44;;;;;;;;;;;;;;;;;;5018910;28;1914;-89
2021/07/29 03:44:09;;;;;;;;;;;;;;;;;;5018893;28;1699;-89
2021/07/29 03:46:34;;;;;;;;;;;;;;;;;;5031367;28;1094;-89
2021/07/29 03:49:00;;;;;;;;;;;;;;;;;;5030128;28;1365;-88
2021/07/29 03:51:25;;;;;;;;;;;;;;;;;;5031696;28;1602;-89
2021/07/29 03:53:51;;;;;;;;;;;;;;;;;;5016436;28;1546;-88
2021/07/29 03:56:16;;;;;;;;;;;;;;;;;;5031784;28;1597;-89
2021/07/29 03:58:41;;;;;;;;;;;;;;;;;;5015361;28;1483;-87
2021/07/29 04:01:09;;;;;;;;;;;;;;;;;;5017447;28;1969;-89
2021/07/29 04:03:34;;;;;;;;;;;;;;;;;;5026737;28;1537;-89
2021/07/29 04:05:59;;;;;;;;;;;;;;;;;;5029673;28;1577;-88
2021/07/29 04:08:24;;;;;;;;;;;;;;;;;;5028154;28;1259;-89
2021/07/29 04:10:49;;;;;;;;;;;;;;;;;;5031578;28;1569;-89
2021/07/29 04:13:15;;;;;;;;;;;;;;;;;;5025747;28;1446;-89
2021/07/29 04:15:40;;;;;;;;;;;;;;;;;;4997774;28;1247;-89
2021/07/29 04:18:05;;;;;;;;;;;;;;;;;;5026867;28;1190;-90
2021/07/29 04:20:30;;;;;;;;;;;;;;;;;;5028012;28;1969;-90
2021/07/29 04:22:55;;;;;;;;;;;;;;;;;;5027210;28;1129;-89
2021/07/29 04:25:24;;;;;;;;;;;;;;;;;;5028310;28;1660;-89
2021/07/29 04:27:49;;;;;;;;;;;;;;;;;;4998642;28;1208;-89
2021/07/29 04:30:14;;;;;;;;;;;;;;;;;;5027973;28;1228;-89
2021/07/29 04:32:40;;;;;;;;;;;;;;;;;;4996747;28;1328;-89
2021/07/29 04:35:05;;;;;;;;;;;;;;;;;;5013833;28;1522;-90
2021/07/29 04:37:30;;;;;;;;;;;;;;;;;;5027196;28;1209;-90
2021/07/29 04:39:55;;;;;;;;;;;;;;;;;;5025860;28;1083;-90
2021/07/29 04:42:21;;;;;;;;;;;;;;;;;;5000048;28;1899;-90
2021/07/29 04:44:46;;;;;;;;;;;;;;;;;;5028799;28;1347;-90
2021/07/29 04:47:15;;;;;;;;;;;;;;;;;;5016850;28;1193;-90
2021/07/29 04:49:40;;;;;;;;;;;;;;;;;;5027877;28;1625;-90
2021/07/29 04:52:05;;;;;;;;;;;;;;;;;;5019580;28;1171;-90
2021/07/29 04:54:30;;;;;;;;;;;;;;;;;;5012444;28;1570;-89
2021/07/29 04:56:56;;;;;;;;;;;;;;;;;;5027161;28;1609;-90
2021/07/29 04:59:21;;;;;;;;;;;;;;;;;;5027600;28;1243;-89
2021/07/29 05:01:46;;;;;;;;;;;;;;;;;;5014198;28;1918;-89
2021/07/29 05:04:11;;;;;;;;;;;;;;;;;;5024905;28;1493;-89
2021/07/29 05:06:37;;;;;;;;;;;;;;;;;;5026817;28;1336;-90
2021/07/29 05:09:02;;;;;;;;;;;;;;;;;;5007583;28;1511;-89
2021/07/29 05:11:28;;;;;;;;;;;;;;;;;;5012081;28;1598;-89
2021/07/29 05:13:53;;;;;;;;;;;;;;;;;;5031740;28;1355;-90
2021/07/29 05:16:18;;;;;;;;;;;;;;;;;;5027820;28;1394;-90
2021/07/29 05:18:43;;;;;;;;;;;;;;;;;;5014192;28;1232;-90
2021/07/29 05:21:09;;;;;;;;;;;;;;;;;;5013889;28;1979;-89
2021/07/29 05:23:34;;;;;;;;;;;;;;;;;;5018672;28;1320;-90
2021/07/29 05:25:59;;;;;;;;;;;;;;;;;;5014211;28;1602;-90
2021/07/29 05:28:25;;;;;;;;;;;;;;;;;;5025576;28;1225;-89
2021/07/29 05:30:50;;;;;;;;;;;;;;;;;;5014383;28;1590;-89
2021/07/29 05:33:15;;;;;;;;;;;;;;;;;;5001768;28;1324;-89
2021/07/29 05:35:40;;;;;;;;;;;;;;;;;;5016999;28;1400;-90
2021/07/29 05:38:05;;;;;;;;;;;;;;;;;;5033284;28;1541;-90
2021/07/29 05:40:31;;;;;;;;;;;;;;;;;;5029731;28;1981;-90
2021/07/29 05:42:56;;;;;;;;;;;;;;;;;;5028046;28;1323;-90
2021/07/29 05:45:21;;;;;;;;;;;;;;;;;;5028240;28;1296;-90
2021/07/29 05:47:46;;;;;;;;;;;;;;;;;;5016446;28;1610;-90
2021/07/29 05:50:11;;;;;;;;;;;;;;;;;;5026328;28;1585;-90
2021/07/29 05:52:40;;;;;;;;;;;;;;;;;;5028797;28;1168;-90
2021/07/29 05:55:05;;;;;;;;;;;;;;;;;;5025924;28;1633;-89
2021/07/29 05:57:32;;;;;;;;;;;;;;;;;;5028736;28;1510;-89
2021/07/29 05:59:57;;;;;;;;;;;;;;;;;;4999812;28;1196;-90
2021/07/29 06:02:22;;;;;;;;;;;;;;;;;;5023418;28;1969;-90
2021/07/29 06:04:48;;;;;;;;;;;;;;;;;;4968223;28;1625;-90
2021/07/29 06:07:14;;;;;;;;;;;;;;;;;;5027037;28;959;-91
2021/07/29 06:09:39;;;;;;;;;;;;;;;;;;5029185;28;1406;-90
2021/07/29 06:12:04;;;;;;;;;;;;;;;;;;5022092;28;1628;-89
2021/07/29 06:14:29;;;;;;;;;;;;;;;;;;5026320;28;1300;-90
2021/07/29 06:16:54;;;;;;;;;;;;;;;;;;5016559;28;1112;-89
2021/07/29 06:19:29;;;;;;;;;;;;;;;;;;5025149;28;1624;-90
2021/07/29 06:21:54;;;;;;;;;;;;;;;;;;5025990;28;1902;-90
2021/07/29 06:24:19;;;;;;;;;;;;;;;;;;5014541;28;1413;-91
2021/07/29 06:26:44;;;;;;;;;;;;;;;;;;5013798;28;1622;-89
2021/07/29 06:29:10;;;;;;;;;;;;;;;;;;5028207;28;1276;-90
2021/07/29 06:31:35;;;;;;;;;;;;;;;;;;5017170;28;1405;-89
2021/07/29 06:34:01;;;;;;;;;;;;;;;;;;5026288;28;1613;-89
2021/07/29 06:36:26;;;;;;;;;;;;;;;;;;5009240;28;1210;-92
2021/07/29 06:38:51;;;;;;;;;;;;;;;;;;5019054;28;1280;-92
2021/07/29 06:41:16;;;;;;;;;;;;;;;;;;5018294;28;1994;-92
2021/07/29 06:43:41;;;;;;;;;;;;;;;;;;5012269;28;1114;-93
2021/07/29 06:46:07;;;;;;;;;;;;;;;;;;5012380;28;1284;-92
2021/07/29 06:48:32;;;;;;;;;;;;;;;;;;5027731;28;1536;-93
2021/07/29 06:51:04;;;;;;;;;;;;;;;;;;5025048;28;1190;-91
2021/07/29 06:53:29;;;;;;;;;;;;;;;;;;5029006;28;1196;-89
2021/07/29 06:55:56;;;;;;;;;;;;;;;;;;5028086;28;1616;-89
2021/07/29 06:58:21;;;;;;;;;;;;;;;;;;5024671;28;1212;-89
2021/07/29 07:00:47;;;;;;;;;;;;;;;;;;4992335;28;1906;-89
2021/07/29 07:03:12;;;;;;;;;;;;;;;;;;5022799;28;1596;-89
2021/07/29 07:05:44;;;;;;;;;;;;;;;;;;5023389;28;1279;-90
2021/07/29 07:08:09;;;;;;;;;;;;;;;;;;5026493;28;1311;-89
2021/07/29 07:10:35;;;;;;;;;;;;;;;;;;5025481;28;1630;-89
2021/07/29 07:13:00;;;;;;;;;;;;;;;;;;5021210;28;1205;-89
2021/07/29 07:15:25;;;;;;;;;;;;;;;;;;5016778;28;1474;-89
2021/07/29 07:17:50;;;;;;;;;;;;;;;;;;5025420;28;1264;-89
2021/07/29 07:20:15;;;;;;;;;;;;;;;;;;5023709;28;2032;-89
2021/07/29 07:22:41;;;;;;;;;;;;;;;;;;5024804;28;1529;-90
2021/07/29 07:25:06;;;;;;;;;;;;;;;;;;5021012;28;1574;-91
2021/07/29 07:27:31;;;;;;;;;;;;;;;;;;5012396;28;1006;-91
2021/07/29 07:29:56;;;;;;;;;;;;;;;;;;5024602;28;1541;-91
2021/07/29 07:32:22;;;;;;;;;;;;;;;;;;5022381;28;1170;-91
2021/07/29 07:34:47;;;;;;;;;;;;;;;;;;5024751;28;1320;-91
2021/07/29 07:37:12;;;;;;;;;;;;;;;;;;5031319;28;1117;-89
2021/07/29 07:39:37;;;;;;;;;;;;;;;;;;5029298;28;1506;-89
2021/07/29 07:42:02;;;;;;;;;;;;;;;;;;5026422;28;1965;-90
2021/07/29 07:44:27;;;;;;;;;;;;;;;;;;5011496;28;1382;-91
2021/07/29 07:46:53;;;;;;;;;;;;;;;;;;5023927;28;1045;-89
2021/07/29 07:49:18;;;;;;;;;;;;;;;;;;5022874;28;1569;-91
2021/07/29 07:51:43;;;;;;;;;;;;;;;;;;5029437;28;994;-91
2021/07/29 07:54:08;;;;;;;;;;;;;;;;;;5022352;28;1354;-91
2021/07/29 07:56:34;;;;;;;;;;;;;;;;;;5024108;28;1581;-91
2021/07/29 07:58:59;;;;;;;;;;;;;;;;;;5023156;28;1672;-91
2021/07/29 08:01:24;;;;;;;;;;;;;;;;;;5027101;28;1887;-91
2021/07/29 08:03:50;;;;;;;;;;;;;;;;;;5023149;28;1265;-91
2021/07/29 08:06:15;;;;;;;;;;;;;;;;;;5020711;28;1569;-91
2021/07/29 08:08:42;;;;;;;;;;;;;;;;;;5014655;28;1153;-92
2021/07/29 08:11:07;;;;;;;;;;;;;;;;;;5026921;28;1639;-91
2021/07/29 08:13:32;;;;;;;;;;;;;;;;;;5029333;28;1229;-94
2021/07/29 08:15:57;;;;;;;;;;;;;;;;;;5026132;28;1280;-91
2021/07/29 08:18:23;;;;;;;;;;;;;;;;;;5005160;28;1449;-92
2021/07/29 08:20:48;;;;;;;;;;;;;;;;;;5028530;28;1906;-90
2021/07/29 08:23:13;;;;;;;;;;;;;;;;;;5028271;28;1229;-90
2021/07/29 08:25:38;;;;;;;;;;;;;;;;;;5007365;28;1556;-90
2021/07/29 08:28:04;;;;;;;;;;;;;;;;;;5030246;28;1109;-91
2021/07/29 08:30:29;;;;;;;;;;;;;;;;;;5029456;28;1197;-91
2021/07/29 08:32:54;;;;;;;;;;;;;;;;;;5028606;28;1110;-90
2021/07/29 08:35:19;;;;;;;;;;;;;;;;;;5027357;28;1625;-90
2021/07/29 08:37:47;;;;;;;;;;;;;;;;;;5026264;28;1032;-90
2021/07/29 08:40:18;;;;;;;;;;;;;;;;;;5023659;28;1964;-90
2021/07/29 08:42:44;;;;;;;;;;;;;;;;;;5010825;28;1260;-91
2021/07/29 08:45:09;;;;;;;;;;;;;;;;;;5023739;28;1283;-90
2021/07/29 08:47:35;;;;;;;;;;;;;;;;;;5021711;28;1553;-89
2021/07/29 08:50:04;;;;;;;;;;;;;;;;;;5011806;28;1209;-91
2021/07/29 08:52:29;;;;;;;;;;;;;;;;;;5022399;28;1181;-93
2021/07/29 08:54:54;;;;;;;;;;;;;;;;;;5021679;28;1566;-94
2021/07/29 08:57:46;;;;;;;;;;;;;;;;;;5020271;28;2276;-93
2021/07/29 09:00:11;;;;;;;;;;;;;;;;;;5021498;28;1902;-90
2021/07/29 09:02:37;;;;;;;;;;;;;;;;;;5020780;28;1157;-91
2021/07/29 09:05:11;;;;;;;;;;;;;;;;;;5022407;28;1598;-91
2021/07/29 09:07:36;;;;;;;;;;;;;;;;;;5019837;28;1355;-91
2021/07/29 09:10:04;;;;;;;;;;;;;;;;;;5024548;28;1359;-90
2021/07/29 09:12:29;;;;;;;;;;;;;;;;;;5022168;28;1946;-90
2021/07/29 09:14:54;;;;;;;;;;;;;;;;;;5026284;28;1273;-90
2021/07/29 09:17:19;;;;;;;;;;;;;;;;;;5009898;28;1177;-91
2021/07/29 09:19:48;;;;;;;;;;;;;;;;;;5002595;28;1472;-91
2021/07/29 09:22:16;;;;;;;;;;;;;;;;;;5024128;28;1969;-91
2021/07/29 09:25:01;;;;;;;;;;;;;;;;;;5020365;28;1352;-91
2021/07/29 09:27:28;;;;;;;;;;;;;;;;;;5020229;28;1670;-90
2021/07/29 09:29:53;;;;;;;;;;;;;;;;;;5020056;28;1409;-91
2021/07/29 09:32:21;;;;;;;;;;;;;;;;;;5020935;28;1217;-91
2021/07/29 09:34:47;;;;;;;;;;;;;;;;;;5022738;28;1513;-91
2021/07/29 09:37:12;;;;;;;;;;;;;;;;;;5009054;28;1161;-93
2021/07/29 09:39:37;;;;;;;;;;;;;;;;;;5020719;28;1430;-90
2021/07/29 09:42:22;;;;;;;;;;;;;;;;;;5024852;28;1973;-91
2021/07/29 09:44:50;;;;;;;;;;;;;;;;;;5021932;28;1374;-92
2021/07/29 09:47:18;;;;;;;;;;;;;;;;;;5020876;28;1205;-91
2021/07/29 09:49:44;;;;;;;;;;;;;;;;;;5020996;28;1550;-91
2021/07/29 09:52:09;;;;;;;;;;;;;;;;;;5024017;28;1205;-91
2021/07/29 09:54:38;;;;;;;;;;;;;;;;;;5019972;28;1393;-92
2021/07/29 09:57:04;;;;;;;;;;;;;;;;;;5011359;28;1649;-90
2021/07/29 09:59:30;;;;;;;;;;;;;;;;;;5019255;28;1252;-91
2021/07/29 10:01:55;;;;;;;;;;;;;;;;;;5022619;28;1971;-94
2021/07/29 10:04:25;;;;;;;;;;;;;;;;;;5003857;28;1592;-91
2021/07/29 10:06:50;;;;;;;;;;;;;;;;;;5005309;28;1650;-91
2021/07/29 10:09:15;;;;;;;;;;;;;;;;;;5019077;28;1574;-91
2021/07/29 10:11:47;;;;;;;;;;;;;;;;;;5008104;28;1630;-91
2021/07/29 10:14:12;;;;;;;;;;;;;;;;;;5010266;28;1318;-90
2021/07/29 10:16:41;;;;;;;;;;;;;;;;;;5010852;28;1186;-92
2021/07/29 10:19:06;;;;;;;;;;;;;;;;;;5023134;28;1616;-91
2021/07/29 10:21:32;;;;;;;;;;;;;;;;;;5020264;28;1969;-91
2021/07/29 10:24:00;;;;;;;;;;;;;;;;;;5015303;28;1214;-91
2021/07/29 10:26:26;;;;;;;;;;;;;;;;;;5027073;28;1593;-92
2021/07/29 10:28:51;;;;;;;;;;;;;;;;;;5013718;28;1432;-92
2021/07/29 10:31:17;;;;;;;;;;;;;;;;;;5027663;28;1244;-92
2021/07/29 10:33:42;;;;;;;;;;;;;;;;;;5009817;28;1735;-91
2021/07/29 10:36:08;;;;;;;;;;;;;;;;;;5014117;28;1304;-91
2021/07/29 10:38:36;;;;;;;;;;;;;;;;;;5023474;28;1181;-91
2021/07/29 10:41:05;;;;;;;;;;;;;;;;;;5025149;28;1902;-91
2021/07/29 10:43:30;;;;;;;;;;;;;;;;;;5013852;28;1236;-92
2021/07/29 10:45:55;;;;;;;;;;;;;;;;;;5027915;28;1483;-90
2021/07/29 10:48:40;;;;;;;;;;;;;;;;;;5013092;28;1810;-91
2021/07/29 10:51:24;;;;;;;;;;;;;;;;;;5024763;28;1074;-91
2021/07/29 10:53:49;;;;;;;;;;;;;;;;;;5025207;28;1212;-92
2021/07/29 10:56:15;;;;;;;;;;;;;;;;;;5007376;28;1657;-90
2021/07/29 10:58:44;;;;;;;;;;;;;;;;;;5023894;28;1361;-91
2021/07/29 11:01:13;;;;;;;;;;;;;;;;;;5026293;28;1913;-92
2021/07/29 11:03:49;;;;;;;;;;;;;;;;;;5023773;28;1233;-92
2021/07/29 11:06:24;;;;;;;;;;;;;;;;;;5016026;28;1694;-91
2021/07/29 11:08:49;;;;;;;;;;;;;;;;;;5025705;28;1336;-90
2021/07/29 11:11:15;;;;;;;;;;;;;;;;;;5027492;28;1549;-91
2021/07/29 11:13:43;;;;;;;;;;;;;;;;;;5012193;28;1162;-90
2021/07/29 11:16:08;;;;;;;;;;;;;;;;;;5012950;28;1377;-90
2021/07/29 11:18:34;;;;;;;;;;;;;;;;;;5008786;28;1742;-90
2021/07/29 11:21:11;;;;;;;;;;;;;;;;;;5007844;28;1894;-90
2021/07/29 11:23:36;;;;;;;;;;;;;;;;;;5016719;28;1466;-91
2021/07/29 11:26:02;;;;;;;;;;;;;;;;;;5008999;28;1484;-90
2021/07/29 11:28:27;;;;;;;;;;;;;;;;;;5024175;28;1271;-91
2021/07/29 11:30:53;;;;;;;;;;;;;;;;;;5023834;28;1102;-91
2021/07/29 11:33:21;;;;;;;;;;;;;;;;;;5022106;28;1193;-91
2021/07/29 11:35:48;;;;;;;;;;;;;;;;;;5025239;28;1529;-92
2021/07/29 11:38:17;;;;;;;;;;;;;;;;;;5024706;28;1135;-91
2021/07/29 11:40:42;;;;;;;;;;;;;;;;;;5024084;28;1978;-91
2021/07/29 11:43:20;;;;;;;;;;;;;;;;;;5023737;28;1051;-91
2021/07/29 11:45:45;;;;;;;;;;;;;;;;;;5025841;28;1308;-90
2021/07/29 11:48:21;;;;;;;;;;;;;;;;;;5024965;28;1154;-92
2021/07/29 11:50:46;;;;;;;;;;;;;;;;;;5013263;28;1598;-91
2021/07/29 11:53:11;;;;;;;;;;;;;;;;;;5023188;28;1232;-91
2021/07/29 11:55:36;;;;;;;;;;;;;;;;;;5029774;28;1554;-91
2021/07/29 11:58:11;;;;;;;;;;;;;;;;;;5029001;28;1149;-91
2021/07/29 12:00:36;;;;;;;;;;;;;;;;;;5010823;28;1914;-91
2021/07/29 12:03:01;;;;;;;;;;;;;;;;;;5026423;28;1134;-91
2021/07/29 12:05:26;;;;;;;;;;;;;;;;;;5008354;28;1579;-90
2021/07/29 12:07:52;;;;;;;;;;;;;;;;;;5012993;28;1193;-91
2021/07/29 12:10:17;;;;;;;;;;;;;;;;;;5020657;28;1703;-90
2021/07/29 12:12:42;;;;;;;;;;;;;;;;;;5010330;28;1522;-91
2021/07/29 12:15:08;;;;;;;;;;;;;;;;;;5020935;28;1831;-92
2021/07/29 12:17:34;;;;;;;;;;;;;;;;;;5014811;28;1359;-94
2021/07/29 12:20:01;;;;;;;;;;;;;;;;;;5012296;28;1664;-92
2021/07/29 12:22:27;;;;;;;;;;;;;;;;;;5010349;28;1961;-94
2021/07/29 12:24:52;;;;;;;;;;;;;;;;;;5019035;28;1520;-91
2021/07/29 12:27:19;;;;;;;;;;;;;;;;;;5024531;28;1565;-92
2021/07/29 12:29:45;;;;;;;;;;;;;;;;;;5012575;28;950;-94
2021/07/29 12:32:19;;;;;;;;;;;;;;;;;;5014936;28;1276;-93
2021/07/29 12:34:45;;;;;;;;;;;;;;;;;;5014967;28;1567;-93
2021/07/29 12:37:11;;;;;;;;;;;;;;;;;;5031836;28;1347;-94
2021/07/29 12:39:36;;;;;;;;;;;;;;;;;;4997520;28;1221;-93
2021/07/29 12:42:01;;;;;;;;;;;;;;;;;;5019047;28;1899;-93
2021/07/29 12:44:26;;;;;;;;;;;;;;;;;;5015605;28;1411;-93
2021/07/29 12:47:08;;;;;;;;;;;;;;;;;;5023945;28;1073;-92
2021/07/29 12:49:38;;;;;;;;;;;;;;;;;;5021451;28;1659;-92
2021/07/29 12:52:03;;;;;;;;;;;;;;;;;;5021002;28;1154;-93
2021/07/29 12:54:29;;;;;;;;;;;;;;;;;;5022015;28;1338;-93
2021/07/29 12:57:04;;;;;;;;;;;;;;;;;;5010036;28;1603;-92
2021/07/29 12:59:29;;;;;;;;;;;;;;;;;;5008640;28;1374;-93
2021/07/29 13:01:54;;;;;;;;;;;;;;;;;;5005458;28;1906;-92
2021/07/29 13:04:23;;;;;;;;;;;;;;;;;;5022724;28;1326;-93
2021/07/29 13:06:48;;;;;;;;;;;;;;;;;;5012982;28;1166;-94
2021/07/29 13:09:13;;;;;;;;;;;;;;;;;;5024579;28;1569;-93
2021/07/29 13:11:41;;;;;;;;;;;;;;;;;;5021921;28;1702;-93
2021/07/29 13:14:06;;;;;;;;;;;;;;;;;;5014123;28;1346;-93
2021/07/29 13:16:33;;;;;;;;;;;;;;;;;;5022872;28;1244;-93
2021/07/29 13:18:58;;;;;;;;;;;;;;;;;;5022072;28;1010;-93
2021/07/29 13:21:23;;;;;;;;;;;;;;;;;;5021193;28;1898;-93
2021/07/29 13:23:48;;;;;;;;;;;;;;;;;;5010879;28;1455;-94
2021/07/29 13:26:14;;;;;;;;;;;;;;;;;;5009324;28;1661;-93
2021/07/29 13:28:39;;;;;;;;;;;;;;;;;;5006325;28;1548;-93
2021/07/29 13:31:04;;;;;;;;;;;;;;;;;;5026907;28;1091;-94
2021/07/29 13:33:30;;;;;;;;;;;;;;;;;;5019602;28;1126;-94
2021/07/29 13:35:55;;;;;;;;;;;;;;;;;;5027261;28;1282;-92
2021/07/29 13:38:23;;;;;;;;;;;;;;;;;;5033544;28;1666;-95
2021/07/29 13:40:49;;;;;;;;;;;;;;;;;;5010583;28;1922;-93
2021/07/29 13:43:14;;;;;;;;;;;;;;;;;;5023636;28;1145;-94
2021/07/29 13:45:39;;;;;;;;;;;;;;;;;;5011350;28;1892;-94
2021/07/29 13:48:04;;;;;;;;;;;;;;;;;;5012665;28;1105;-94
2021/07/29 13:50:30;;;;;;;;;;;;;;;;;;5025940;28;1198;-94
2021/07/29 13:52:56;;;;;;;;;;;;;;;;;;5030601;28;1097;-94
2021/07/29 13:55:21;;;;;;;;;;;;;;;;;;5028928;28;1597;-94
2021/07/29 13:57:47;;;;;;;;;;;;;;;;;;5012413;28;1173;-93
2021/07/29 14:00:13;;;;;;;;;;;;;;;;;;4993502;28;1461;-94
2021/07/29 14:02:38;;;;;;;;;;;;;;;;;;5009977;28;1969;-93
2021/07/29 14:05:04;;;;;;;;;;;;;;;;;;5032041;28;1582;-93
2021/07/29 14:07:29;;;;;;;;;;;;;;;;;;5010143;28;1591;-94
2021/07/29 14:09:54;;;;;;;;;;;;;;;;;;5009781;28;1089;-92
2021/07/29 14:12:23;;;;;;;;;;;;;;;;;;5018231;28;1522;-92
2021/07/29 14:14:49;;;;;;;;;;;;;;;;;;5023732;28;1459;-92
2021/07/29 14:17:19;;;;;;;;;;;;;;;;;;5023329;28;1256;-92
2021/07/29 14:20:03;;;;;;;;;;;;;;;;;;5019593;28;1655;-92
2021/07/29 14:25:11;;;;;;;;;;;;;;;;;;5010342;28;1585;-91
2021/07/29 14:27:37;;;;;;;;;;;;;;;;;;5025301;28;1213;-92
2021/07/29 14:30:02;;;;;;;;;;;;;;;;;;5008727;28;1126;-91
2021/07/29 14:32:28;;;;;;;;;;;;;;;;;;5019828;28;1153;-92
2021/07/29 14:34:53;;;;;;;;;;;;;;;;;;5019744;28;1577;-91
2021/07/29 14:37:18;;;;;;;;;;;;;;;;;;5018560;28;1401;-91
2021/07/29 14:39:44;;;;;;;;;;;;;;;;;;5021797;28;1154;-91
2021/07/29 14:42:09;;;;;;;;;;;;;;;;;;5020770;28;1915;-92
2021/07/29 14:44:37;;;;;;;;;;;;;;;;;;5024006;28;1377;-91
2021/07/29 14:49:46;;;;;;;;;;;;;;;;;;5024867;28;1510;-91
2021/07/29 14:52:14;;;;;;;;;;;;;;;;;;5024372;28;1164;-90
2021/07/29 14:54:39;;;;;;;;;;;;;;;;;;5026476;28;1221;-91
2021/07/29 14:57:10;;;;;;;;;;;;;;;;;;5026062;28;1471;-91
2021/07/29 16:08:07;;;;;;;;;;;;;;;;;;5011141;28;1221;-93
2021/07/29 16:10:35;;;;;;;;;;;;;;;;;;5024128;28;1545;-94
2021/07/29 16:13:01;;;;;;;;;;;;;;;;;;5024872;28;1391;-93
2021/07/29 16:15:26;;;;;;;;;;;;;;;;;;5022465;28;1577;-93
2021/07/29 16:17:52;;;;;;;;;;;;;;;;;;5009669;28;1240;-93
2021/07/29 16:20:17;;;;;;;;;;;;;;;;;;5012139;28;1456;-93
2021/07/29 16:22:42;;;;;;;;;;;;;;;;;;5026446;28;1906;-93
2021/07/29 16:25:07;;;;;;;;;;;;;;;;;;5021763;28;1636;-94
2021/07/29 16:27:32;;;;;;;;;;;;;;;;;;5026404;28;1165;-93
2021/07/29 16:29:57;;;;;;;;;;;;;;;;;;5008501;28;1142;-93
2021/07/29 16:32:22;;;;;;;;;;;;;;;;;;5020168;28;1338;-94
2021/07/29 16:34:47;;;;;;;;;;;;;;;;;;5011248;28;1549;-94
2021/07/29 16:37:12;;;;;;;;;;;;;;;;;;5022907;28;1193;-94
2021/07/29 16:39:42;;;;;;;;;;;;;;;;;;5029431;28;1276;-94
2021/07/29 16:42:07;;;;;;;;;;;;;;;;;;5022808;28;1961;-94
2021/07/29 16:44:33;;;;;;;;;;;;;;;;;;5012950;28;1398;-93
2021/07/29 16:46:58;;;;;;;;;;;;;;;;;;5025121;28;1209;-93
2021/07/29 16:49:23;;;;;;;;;;;;;;;;;;5023793;28;1529;-95
2021/07/29 16:51:48;;;;;;;;;;;;;;;;;;5026613;28;1204;-94
2021/07/29 16:54:13;;;;;;;;;;;;;;;;;;5021783;28;1300;-93
2021/07/29 16:56:39;;;;;;;;;;;;;;;;;;5022253;28;1600;-92
2021/07/29 16:59:04;;;;;;;;;;;;;;;;;;5024579;28;1354;-93
2021/07/29 17:01:30;;;;;;;;;;;;;;;;;;5024862;28;1906;-93
2021/07/29 17:03:55;;;;;;;;;;;;;;;;;;5011616;28;1575;-93
2021/07/29 17:06:20;;;;;;;;;;;;;;;;;;5021879;28;1275;-94
2021/07/29 17:08:46;;;;;;;;;;;;;;;;;;5010432;28;1494;-93
2021/07/29 17:11:11;;;;;;;;;;;;;;;;;;5023956;28;1566;-93
2021/07/29 17:13:36;;;;;;;;;;;;;;;;;;5020456;28;1118;-94
2021/07/29 17:16:01;;;;;;;;;;;;;;;;;;5014255;28;1606;-93
2021/07/29 17:18:26;;;;;;;;;;;;;;;;;;5026306;28;1336;-96
2021/07/29 17:20:52;;;;;;;;;;;;;;;;;;5014316;28;1961;-93
2021/07/29 17:23:17;;;;;;;;;;;;;;;;;;5010940;28;1460;-94
2021/07/29 17:25:42;;;;;;;;;;;;;;;;;;5025572;28;1561;-93
2021/07/29 17:28:08;;;;;;;;;;;;;;;;;;5022501;28;1205;-93
2021/07/29 17:30:33;;;;;;;;;;;;;;;;;;5010973;28;1623;-93
2021/07/29 17:32:58;;;;;;;;;;;;;;;;;;5022687;28;1220;-93
2021/07/29 17:35:23;;;;;;;;;;;;;;;;;;5011758;28;1287;-93
2021/07/29 17:37:49;;;;;;;;;;;;;;;;;;5020798;28;1609;-93
2021/07/29 17:40:14;;;;;;;;;;;;;;;;;;5012161;28;1558;-94
2021/07/29 17:42:39;;;;;;;;;;;;;;;;;;5016349;28;1966;-93
2021/07/29 17:45:04;;;;;;;;;;;;;;;;;;5010372;28;1586;-93
2021/07/29 17:47:30;;;;;;;;;;;;;;;;;;5022520;28;1236;-93
2021/07/29 17:49:55;;;;;;;;;;;;;;;;;;5013456;28;1305;-93
2021/07/29 17:52:20;;;;;;;;;;;;;;;;;;5011880;28;1267;-93
2021/07/29 17:54:45;;;;;;;;;;;;;;;;;;5018420;28;1562;-93
2021/07/29 17:57:10;;;;;;;;;;;;;;;;;;5008241;28;1594;-94
2021/07/29 17:59:35;;;;;;;;;;;;;;;;;;5011481;28;1408;-94
2021/07/29 18:02:04;;;;;;;;;;;;;;;;;;5009245;28;1903;-93
2021/07/29 18:04:29;;;;;;;;;;;;;;;;;;5020083;28;1652;-94
2021/07/29 18:06:55;;;;;;;;;;;;;;;;;;5024653;28;1053;-94
2021/07/29 18:09:20;;;;;;;;;;;;;;;;;;5011910;28;1177;-93
2021/07/29 18:11:45;;;;;;;;;;;;;;;;;;5024645;28;1600;-93